createdAt,value
2018-04-13T00:00:54.059Z,0
2018-04-13T00:02:08.735Z,0
2018-04-13T00:02:54.104Z,0
2018-04-13T00:03:54.131Z,0
2018-04-13T00:05:08.801Z,0
2018-04-13T00:05:53.916Z,0
2018-04-13T00:06:54.200Z,0
2018-04-13T00:08:54.245Z,0
2018-04-13T00:10:08.722Z,0
2018-04-13T00:10:54.028Z,0
2018-04-13T00:11:54.307Z,0
2018-04-13T00:12:54.330Z,0
2018-04-13T00:13:54.359Z,0
2018-04-13T00:14:54.378Z,0
2018-04-13T00:15:54.402Z,0
2018-04-13T00:16:54.420Z,0
2018-04-13T00:17:54.195Z,0
2018-04-13T00:18:54.476Z,0
2018-04-13T00:19:54.507Z,0
2018-04-13T00:20:54.515Z,0
2018-04-13T00:21:54.549Z,0
2018-04-13T00:23:09.224Z,0
2018-04-13T00:23:54.336Z,0
2018-04-13T00:25:09.268Z,0
2018-04-13T00:25:54.380Z,0
2018-04-13T00:26:54.656Z,0
2018-04-13T00:28:08.820Z,0
2018-04-13T00:28:54.449Z,0
2018-04-13T00:31:09.409Z,0
2018-04-13T00:31:54.513Z,0
2018-04-13T00:33:09.452Z,0
2018-04-13T00:34:09.216Z,0
2018-04-13T00:34:54.851Z,0
2018-04-13T00:35:54.603Z,0
2018-04-13T00:36:54.635Z,0
2018-04-13T00:38:09.604Z,0
2018-04-13T00:38:54.158Z,0
2018-04-13T00:40:09.354Z,0
2018-04-13T00:40:54.723Z,0
2018-04-13T00:42:24.318Z,0
2018-04-13T00:42:54.247Z,0
2018-04-13T00:44:09.704Z,0
2018-04-13T00:44:55.070Z,0
2018-04-13T00:45:54.833Z,0
2018-04-13T00:46:55.120Z,0
2018-04-13T00:47:55.142Z,0
2018-04-13T00:49:09.819Z,0
2018-04-13T00:49:55.187Z,0
2018-04-13T00:50:54.951Z,0
2018-04-13T00:51:55.239Z,0
2018-04-13T00:52:55.252Z,0
2018-04-13T00:53:55.017Z,0
2018-04-13T00:54:55.310Z,0
2018-04-13T00:55:55.325Z,0
2018-04-13T00:56:55.349Z,0
2018-04-13T00:58:10.038Z,0
2018-04-13T00:58:55.398Z,0
2018-04-13T00:59:54.645Z,0
2018-04-13T01:00:55.437Z,0
2018-04-13T01:01:55.458Z,0
2018-04-13T01:03:09.881Z,0
2018-04-13T01:04:10.186Z,0
2018-04-13T01:04:55.270Z,0
2018-04-13T01:06:09.952Z,0
2018-04-13T01:06:55.576Z,0
2018-04-13T01:07:55.594Z,0
2018-04-13T01:08:55.709Z,0
2018-04-13T01:09:55.383Z,0
2018-04-13T01:10:55.666Z,0
2018-04-13T01:11:55.691Z,0
2018-04-13T01:14:25.069Z,0
2018-04-13T01:14:55.245Z,0
2018-04-13T01:15:55.264Z,0
2018-04-13T01:16:55.814Z,0
2018-04-13T01:17:55.833Z,0
2018-04-13T01:19:55.617Z,0
2018-04-13T01:20:55.896Z,0
2018-04-13T01:21:55.917Z,0
2018-04-13T01:22:55.942Z,0
2018-04-13T01:23:55.708Z,0
2018-04-13T01:24:55.728Z,0
2018-04-13T01:25:56.019Z,0
2018-04-13T01:26:56.039Z,0
2018-04-13T01:27:56.061Z,0
2018-04-13T01:28:56.079Z,0
2018-04-13T01:30:10.501Z,0
2018-04-13T01:30:56.129Z,0
2018-04-13T01:32:10.549Z,0
2018-04-13T01:32:56.169Z,0
2018-04-13T01:34:10.337Z,0
2018-04-13T01:34:56.227Z,0
2018-04-13T01:35:56.238Z,0
2018-04-13T01:36:56.001Z,0
2018-04-13T01:37:55.510Z,0
2018-04-13T01:38:55.537Z,0
2018-04-13T01:39:56.337Z,0
2018-04-13T01:40:56.355Z,0
2018-04-13T01:41:56.119Z,0
2018-04-13T01:42:56.402Z,0
2018-04-13T01:44:10.825Z,0
2018-04-13T01:45:25.765Z,0
2018-04-13T01:45:56.472Z,0
2018-04-13T01:46:56.532Z,0
2018-04-13T01:47:56.257Z,0
2018-04-13T01:48:56.543Z,0
2018-04-13T01:49:56.302Z,0
2018-04-13T01:50:56.661Z,0
2018-04-13T01:51:56.622Z,0
2018-04-13T01:52:56.631Z,0
2018-04-13T01:53:56.398Z,0
2018-04-13T01:54:56.158Z,0
2018-04-13T01:56:11.107Z,0
2018-04-13T01:56:56.473Z,0
2018-04-13T01:57:56.746Z,0
2018-04-13T01:58:56.817Z,0
2018-04-13T02:00:10.940Z,0
2018-04-13T02:00:56.924Z,0
2018-04-13T02:02:56.866Z,0
2018-04-13T02:03:56.629Z,0
2018-04-13T02:04:56.653Z,0
2018-04-13T02:05:56.421Z,0
2018-04-13T02:06:56.693Z,0
2018-04-13T02:08:11.639Z,0
2018-04-13T02:09:11.658Z,0
2018-04-13T02:09:56.766Z,0
2018-04-13T02:11:11.451Z,0
2018-04-13T02:12:11.729Z,0
2018-04-13T02:12:56.828Z,0
2018-04-13T02:13:57.112Z,0
2018-04-13T02:14:57.135Z,0
2018-04-13T02:15:57.156Z,0
2018-04-13T02:17:11.583Z,0
2018-04-13T02:17:57.215Z,0
2018-04-13T02:18:57.228Z,0
2018-04-13T02:19:57.254Z,0
2018-04-13T02:20:57.297Z,0
2018-04-13T02:21:57.297Z,0
2018-04-13T02:22:57.320Z,0
2018-04-13T02:23:57.345Z,0
2018-04-13T02:25:12.027Z,0
2018-04-13T02:25:57.128Z,0
2018-04-13T02:26:57.414Z,0
2018-04-13T02:27:57.436Z,0
2018-04-13T02:28:57.468Z,0
2018-04-13T02:29:57.483Z,0
2018-04-13T02:30:57.526Z,0
2018-04-13T02:31:57.537Z,0
2018-04-13T02:33:12.215Z,0
2018-04-13T02:33:57.574Z,0
2018-04-13T02:34:57.596Z,0
2018-04-13T02:36:12.016Z,0
2018-04-13T02:36:57.384Z,0
2018-04-13T02:37:57.146Z,0
2018-04-13T02:38:57.695Z,0
2018-04-13T02:40:12.118Z,0
2018-04-13T02:40:57.218Z,0
2018-04-13T02:42:12.420Z,0
2018-04-13T02:43:12.174Z,0
2018-04-13T02:43:57.547Z,0
2018-04-13T02:44:57.306Z,0
2018-04-13T02:45:57.844Z,0
2018-04-13T02:46:57.878Z,0
2018-04-13T02:47:57.634Z,0
2018-04-13T02:49:12.336Z,0
2018-04-13T02:50:57.962Z,0
2018-04-13T02:52:12.381Z,0
2018-04-13T02:53:12.408Z,0
2018-04-13T02:53:57.518Z,0
2018-04-13T02:54:57.532Z,0
2018-04-13T02:56:12.483Z,0
2018-04-13T02:56:58.106Z,0
2018-04-13T02:57:57.858Z,0
2018-04-13T02:58:57.893Z,0
2018-04-13T02:59:57.397Z,0
2018-04-13T03:00:58.196Z,0
2018-04-13T03:01:57.701Z,0
2018-04-13T03:02:57.465Z,0
2018-04-13T03:03:58.258Z,0
2018-04-13T03:05:27.594Z,0
2018-04-13T03:05:58.303Z,0
2018-04-13T03:07:12.722Z,0
2018-04-13T03:07:58.359Z,0
2018-04-13T03:09:12.770Z,0
2018-04-13T03:09:57.891Z,0
2018-04-13T03:10:58.154Z,0
2018-04-13T03:12:13.110Z,0
2018-04-13T03:13:12.857Z,0
2018-04-13T03:13:58.481Z,0
2018-04-13T03:14:58.246Z,0
2018-04-13T03:15:58.015Z,0
2018-04-13T03:17:58.572Z,0
2018-04-13T03:19:13.335Z,0
2018-04-13T03:20:27.939Z,0
2018-04-13T03:20:58.125Z,0
2018-04-13T03:21:58.660Z,0
2018-04-13T03:22:58.430Z,0
2018-04-13T03:24:58.737Z,0
2018-04-13T03:25:58.856Z,0
2018-04-13T03:26:58.524Z,0
2018-04-13T03:27:58.802Z,0
2018-04-13T03:28:58.565Z,0
2018-04-13T03:29:58.593Z,0
2018-04-13T03:30:58.616Z,0
2018-04-13T03:31:58.637Z,0
2018-04-13T03:33:13.577Z,0
2018-04-13T03:33:58.677Z,0
2018-04-13T03:35:13.621Z,0
2018-04-13T03:36:13.390Z,0
2018-04-13T03:36:59.007Z,0
2018-04-13T03:38:13.171Z,0
2018-04-13T03:38:59.049Z,0
2018-04-13T03:39:59.072Z,0
2018-04-13T03:40:59.117Z,0
2018-04-13T03:42:58.623Z,0
2018-04-13T03:44:13.563Z,0
2018-04-13T03:44:58.924Z,0
2018-04-13T03:46:13.613Z,0
2018-04-13T03:46:58.970Z,0
2018-04-13T03:47:58.481Z,0
2018-04-13T03:48:59.285Z,0
2018-04-13T03:50:14.060Z,0
2018-04-13T03:51:13.466Z,0
2018-04-13T03:52:14.011Z,0
2018-04-13T03:52:59.364Z,0
2018-04-13T03:53:59.134Z,0
2018-04-13T03:54:59.414Z,0
2018-04-13T03:56:14.107Z,0
2018-04-13T03:56:59.198Z,0
2018-04-13T03:57:59.224Z,0
2018-04-13T03:58:59.509Z,0
2018-04-13T03:59:59.271Z,0
2018-04-13T04:00:59.287Z,0
2018-04-13T04:01:59.579Z,0
2018-04-13T04:03:14.255Z,0
2018-04-13T04:03:59.622Z,0
2018-04-13T04:04:59.384Z,0
2018-04-13T04:05:59.663Z,0
2018-04-13T04:07:14.344Z,0
2018-04-13T04:08:14.110Z,0
2018-04-13T04:08:59.729Z,0
2018-04-13T04:10:14.153Z,0
2018-04-13T04:10:59.909Z,0
2018-04-13T04:11:59.027Z,0
2018-04-13T04:12:59.822Z,0
2018-04-13T04:13:59.882Z,0
2018-04-13T04:15:14.269Z,0
2018-04-13T04:16:14.545Z,0
2018-04-13T04:17:14.309Z,0
2018-04-13T04:17:59.937Z,0
2018-04-13T04:18:59.955Z,0
2018-04-13T04:20:59.484Z,0
2018-04-13T04:21:59.514Z,0
2018-04-13T04:24:14.975Z,0
2018-04-13T04:25:14.751Z,0
2018-04-13T04:26:00.120Z,0
2018-04-13T04:27:00.157Z,0
2018-04-13T04:27:59.900Z,0
2018-04-13T04:28:59.927Z,5
2018-04-13T04:30:00.208Z,5
2018-04-13T04:30:59.713Z,5
2018-04-13T04:32:00.010Z,5
2018-04-13T04:33:00.271Z,5
2018-04-13T04:34:00.035Z,10
2018-04-13T04:35:00.315Z,10
2018-04-13T04:37:00.375Z,10
2018-04-13T04:38:00.384Z,10
2018-04-13T04:39:15.085Z,10
2018-04-13T04:40:14.842Z,10
2018-04-13T04:41:00.278Z,10
2018-04-13T04:42:00.479Z,10
2018-04-13T04:43:00.503Z,10
2018-04-13T04:44:00.520Z,10
2018-04-13T04:45:15.217Z,10
2018-04-13T04:46:00.565Z,10
2018-04-13T04:47:00.596Z,15
2018-04-13T04:48:00.616Z,15
2018-04-13T04:49:00.652Z,15
2018-04-13T04:50:15.324Z,15
2018-04-13T04:52:00.709Z,15
2018-04-13T04:53:00.480Z,15
2018-04-13T04:54:00.493Z,15
2018-04-13T04:55:15.172Z,15
2018-04-13T04:56:15.464Z,15
2018-04-13T04:57:00.819Z,15
2018-04-13T04:58:00.852Z,15
2018-04-13T04:59:00.613Z,15
2018-04-13T05:00:00.635Z,15
2018-04-13T05:01:00.650Z,20
2018-04-13T05:02:00.938Z,20
2018-04-13T05:03:00.698Z,20
2018-04-13T05:04:00.977Z,25
2018-04-13T05:05:15.413Z,20
2018-04-13T05:07:01.057Z,20
2018-04-13T05:08:00.816Z,20
2018-04-13T05:09:00.845Z,15
2018-04-13T05:10:00.600Z,15
2018-04-13T05:11:01.143Z,15
2018-04-13T05:12:01.271Z,15
2018-04-13T05:13:01.182Z,15
2018-04-13T05:14:00.956Z,15
2018-04-13T05:15:01.235Z,10
2018-04-13T05:16:01.257Z,10
2018-04-13T05:17:15.939Z,10
2018-04-13T05:18:15.709Z,10
2018-04-13T05:19:15.721Z,5
2018-04-13T05:20:01.085Z,5
2018-04-13T05:21:15.785Z,5
2018-04-13T05:22:01.144Z,5
2018-04-13T05:23:01.412Z,5
2018-04-13T05:24:01.442Z,5
2018-04-13T05:25:16.122Z,5
2018-04-13T05:26:01.222Z,5
2018-04-13T05:27:30.821Z,5
2018-04-13T05:28:16.185Z,5
2018-04-13T05:29:01.552Z,10
2018-04-13T05:30:01.679Z,10
2018-04-13T05:32:16.029Z,10
2018-04-13T05:33:01.658Z,10
2018-04-13T05:34:01.662Z,10
2018-04-13T05:35:01.691Z,10
2018-04-13T05:36:01.713Z,10
2018-04-13T05:37:01.215Z,10
2018-04-13T05:38:01.497Z,10
2018-04-13T05:39:01.783Z,10
2018-04-13T05:40:16.465Z,15
2018-04-13T05:41:16.497Z,15
2018-04-13T05:42:01.602Z,15
2018-04-13T05:43:16.274Z,20
2018-04-13T05:44:01.632Z,20
2018-04-13T05:45:01.916Z,20
2018-04-13T05:46:01.998Z,20
2018-04-13T05:47:01.713Z,25
2018-04-13T05:48:01.984Z,25
2018-04-13T05:49:02.106Z,25
2018-04-13T05:50:02.043Z,25
2018-04-13T05:51:02.051Z,25
2018-04-13T05:52:01.825Z,25
2018-04-13T05:53:16.503Z,30
2018-04-13T05:54:01.861Z,30
2018-04-13T05:55:02.146Z,30
2018-04-13T05:56:01.960Z,35
2018-04-13T05:57:01.930Z,35
2018-04-13T05:58:16.871Z,35
2018-04-13T05:59:16.680Z,35
2018-04-13T06:00:02.003Z,40
2018-04-13T06:01:02.018Z,40
2018-04-13T06:02:02.048Z,45
2018-04-13T06:03:02.065Z,45
2018-04-13T06:04:01.840Z,40
2018-04-13T06:05:01.961Z,35
2018-04-13T06:06:02.137Z,30
2018-04-13T06:07:17.091Z,30
2018-04-13T06:08:02.441Z,30
2018-04-13T06:09:02.466Z,30
2018-04-13T06:10:02.234Z,30
2018-04-13T06:11:17.171Z,30
2018-04-13T06:13:02.559Z,30
2018-04-13T06:14:17.078Z,30
2018-04-13T06:15:16.999Z,30
2018-04-13T06:16:02.622Z,30
2018-04-13T06:17:02.652Z,30
2018-04-13T06:18:02.413Z,30
2018-04-13T06:19:02.904Z,35
2018-04-13T06:20:02.456Z,35
2018-04-13T06:21:02.220Z,40
2018-04-13T06:22:02.761Z,40
2018-04-13T06:23:17.443Z,40
2018-04-13T06:24:02.551Z,40
2018-04-13T06:25:02.582Z,40
2018-04-13T06:26:02.859Z,45
2018-04-13T06:27:17.294Z,45
2018-04-13T06:28:17.559Z,45
2018-04-13T06:29:02.407Z,45
2018-04-13T06:30:17.683Z,45
2018-04-13T06:31:02.714Z,45
2018-04-13T06:32:02.487Z,45
2018-04-13T06:33:03.024Z,45
2018-04-13T06:34:03.046Z,45
2018-04-13T06:35:03.066Z,40
2018-04-13T06:36:03.082Z,35
2018-04-13T06:37:04.665Z,30
2018-04-13T06:38:17.531Z,25
2018-04-13T06:39:02.894Z,25
2018-04-13T06:40:02.659Z,20
2018-04-13T06:41:02.941Z,15
2018-04-13T06:42:03.229Z,15
2018-04-13T06:43:03.244Z,15
2018-04-13T06:44:03.273Z,15
2018-04-13T06:45:03.036Z,15
2018-04-13T06:46:03.057Z,15
2018-04-13T06:47:03.097Z,10
2018-04-13T06:48:03.363Z,10
2018-04-13T06:49:03.139Z,10
2018-04-13T06:50:03.408Z,10
2018-04-13T06:51:03.451Z,10
2018-04-13T06:52:03.461Z,15
2018-04-13T06:53:18.137Z,15
2018-04-13T06:54:18.163Z,20
2018-04-13T06:55:03.284Z,20
2018-04-13T06:56:17.947Z,25
2018-04-13T06:57:03.311Z,30
2018-04-13T06:58:03.605Z,35
2018-04-13T06:59:18.276Z,40
2018-04-13T07:00:03.384Z,40
2018-04-13T07:01:18.325Z,40
2018-04-13T07:02:18.086Z,40
2018-04-13T07:03:03.451Z,40
2018-04-13T07:04:18.412Z,40
2018-04-13T07:05:03.762Z,40
2018-04-13T07:06:03.528Z,40
2018-04-13T07:07:03.540Z,40
2018-04-13T07:08:03.828Z,40
2018-04-13T07:09:03.844Z,45
2018-04-13T07:10:03.359Z,45
2018-04-13T07:11:03.375Z,50
2018-04-13T07:12:03.656Z,45
2018-04-13T07:13:18.612Z,45
2018-04-13T07:14:18.623Z,40
2018-04-13T07:15:03.735Z,40
2018-04-13T07:16:04.052Z,35
2018-04-13T07:17:03.511Z,35
2018-04-13T07:18:18.720Z,30
2018-04-13T07:19:18.682Z,30
2018-04-13T07:20:04.108Z,30
2018-04-13T07:21:03.606Z,30
2018-04-13T07:22:18.855Z,35
2018-04-13T07:23:03.915Z,35
2018-04-13T07:24:03.941Z,35
2018-04-13T07:25:04.156Z,35
2018-04-13T07:26:03.978Z,35
2018-04-13T07:27:03.745Z,35
2018-04-13T07:28:18.709Z,35
2018-04-13T07:29:04.308Z,35
2018-04-13T07:30:04.079Z,30
2018-04-13T07:31:04.094Z,30
2018-04-13T07:32:19.442Z,25
2018-04-13T07:33:03.361Z,20
2018-04-13T07:35:05.305Z,15
2018-04-13T07:36:04.503Z,15
2018-04-13T07:37:05.473Z,15
2018-04-13T07:38:04.266Z,20
2018-04-13T07:39:04.017Z,20
2018-04-13T07:40:04.899Z,20
2018-04-13T07:41:03.968Z,25
2018-04-13T07:42:04.088Z,20
2018-04-13T07:43:04.106Z,20
2018-04-13T07:44:04.388Z,20
2018-04-13T07:45:04.297Z,15
2018-04-13T07:46:05.273Z,15
2018-04-13T07:47:04.202Z,10
2018-04-13T07:48:04.488Z,10
2018-04-13T07:49:19.169Z,10
2018-04-13T07:50:33.848Z,10
2018-04-13T07:51:04.343Z,10
2018-04-13T07:52:04.776Z,5
2018-04-13T07:53:04.599Z,10
2018-04-13T07:54:19.542Z,10
2018-04-13T07:55:04.916Z,15
2018-04-13T07:56:04.925Z,15
2018-04-13T07:57:04.444Z,20
2018-04-13T07:58:05.481Z,25
2018-04-13T07:59:06.092Z,30
2018-04-13T08:00:20.859Z,40
2018-04-13T08:01:19.707Z,50
2018-04-13T08:02:19.724Z,55
2018-04-13T08:03:04.918Z,55
2018-04-13T08:04:04.591Z,60
2018-04-13T08:05:19.738Z,65
2018-04-13T08:07:04.658Z,60
2018-04-13T08:08:05.199Z,55
2018-04-13T08:09:04.968Z,50
2018-04-13T08:10:05.002Z,55
2018-04-13T08:12:05.300Z,55
2018-04-13T08:13:05.313Z,60
2018-04-13T08:14:19.216Z,60
2018-04-13T08:15:04.838Z,55
2018-04-13T08:16:04.862Z,55
2018-04-13T08:17:20.069Z,55
2018-04-13T08:18:20.261Z,55
2018-04-13T08:19:19.851Z,60
2018-04-13T08:20:05.210Z,65
2018-04-13T08:21:05.503Z,65
2018-04-13T08:22:05.262Z,65
2018-04-13T08:23:05.543Z,65
2018-04-13T08:24:20.226Z,60
2018-04-13T08:25:05.325Z,65
2018-04-13T08:26:05.353Z,60
2018-04-13T08:27:05.116Z,55
2018-04-13T08:28:20.312Z,60
2018-04-13T08:29:05.213Z,55
2018-04-13T08:30:05.726Z,55
2018-04-13T08:31:20.151Z,55
2018-04-13T08:32:05.574Z,55
2018-04-13T08:33:05.567Z,50
2018-04-13T08:34:05.346Z,50
2018-04-13T08:35:05.039Z,50
2018-04-13T08:38:05.901Z,75
2018-04-13T08:39:05.432Z,80
2018-04-13T08:40:05.409Z,85
2018-04-13T08:41:05.744Z,80
2018-04-13T08:42:05.456Z,75
2018-04-13T08:43:05.833Z,70
2018-04-13T08:44:20.763Z,65
2018-04-13T08:45:05.528Z,65
2018-04-13T08:47:05.682Z,55
2018-04-13T08:48:05.608Z,55
2018-04-13T08:49:06.675Z,55
2018-04-13T08:50:05.640Z,55
2018-04-13T08:51:05.919Z,55
2018-04-13T08:52:05.691Z,50
2018-04-13T08:53:35.658Z,55
2018-04-13T08:54:06.161Z,55
2018-04-13T08:55:06.236Z,55
2018-04-13T08:56:05.518Z,55
2018-04-13T08:57:05.539Z,55
2018-04-13T08:58:20.815Z,55
2018-04-13T08:59:06.358Z,50
2018-04-13T09:00:06.129Z,55
2018-04-13T09:01:06.613Z,55
2018-04-13T09:02:20.829Z,55
2018-04-13T09:04:06.226Z,70
2018-04-13T09:05:05.983Z,85
2018-04-13T09:06:06.278Z,100
2018-04-13T09:07:06.034Z,115
2018-04-13T09:08:05.795Z,120
2018-04-13T09:09:35.654Z,120
2018-04-13T09:11:06.792Z,105
2018-04-13T09:12:06.414Z,105
2018-04-13T09:13:06.287Z,110
2018-04-13T09:14:06.720Z,115
2018-04-13T09:15:06.218Z,120
2018-04-13T09:16:06.236Z,110
2018-04-13T09:17:06.785Z,105
2018-04-13T09:19:06.564Z,100
2018-04-13T09:20:35.923Z,105
2018-04-13T09:21:06.358Z,105
2018-04-13T09:22:21.550Z,110
2018-04-13T09:23:06.402Z,110
2018-04-13T09:24:06.690Z,115
2018-04-13T09:25:36.382Z,110
2018-04-13T09:26:06.483Z,110
2018-04-13T09:27:06.756Z,110
2018-04-13T09:28:06.553Z,105
2018-04-13T09:29:06.849Z,110
2018-04-13T09:30:07.109Z,100
2018-04-13T09:31:06.851Z,100
2018-04-13T09:33:21.546Z,100
2018-04-13T09:34:06.397Z,100
2018-04-13T09:35:06.936Z,100
2018-04-13T09:36:06.187Z,100
2018-04-13T09:37:07.242Z,100
2018-04-13T09:38:21.926Z,100
2018-04-13T09:39:06.520Z,100
2018-04-13T09:40:36.377Z,105
2018-04-13T09:41:07.084Z,110
2018-04-13T09:42:07.374Z,120
2018-04-13T09:43:06.866Z,125
2018-04-13T09:44:07.267Z,125
2018-04-13T09:45:21.834Z,115
2018-04-13T09:46:07.614Z,105
2018-04-13T09:47:22.138Z,100
2018-04-13T09:48:06.991Z,105
2018-04-13T09:49:22.196Z,115
2018-04-13T09:50:07.340Z,120
2018-04-13T09:51:07.325Z,115
2018-04-13T09:52:06.818Z,110
2018-04-13T09:53:07.368Z,105
2018-04-13T09:54:07.391Z,95
2018-04-13T09:55:07.160Z,90
2018-04-13T09:56:07.174Z,85
2018-04-13T09:57:07.468Z,90
2018-04-13T09:58:21.879Z,85
2018-04-13T09:59:07.774Z,85
2018-04-13T10:00:07.266Z,90
2018-04-13T10:01:07.816Z,90
2018-04-13T10:02:21.718Z,85
2018-04-13T10:03:22.523Z,85
2018-04-13T10:04:22.543Z,75
2018-04-13T10:05:07.645Z,75
2018-04-13T10:06:22.327Z,65
2018-04-13T10:07:22.615Z,65
2018-04-13T10:08:08.147Z,65
2018-04-13T10:09:07.480Z,65
2018-04-13T10:10:22.683Z,65
2018-04-13T10:11:07.791Z,70
2018-04-13T10:12:37.397Z,60
2018-04-13T10:13:08.099Z,60
2018-04-13T10:14:07.864Z,55
2018-04-13T10:15:07.883Z,55
2018-04-13T10:16:07.649Z,55
2018-04-13T10:17:08.188Z,55
2018-04-13T10:18:07.696Z,55
2018-04-13T10:19:08.235Z,60
2018-04-13T10:20:08.100Z,70
2018-04-13T10:21:22.423Z,80
2018-04-13T10:22:07.792Z,85
2018-04-13T10:23:07.807Z,95
2018-04-13T10:24:08.094Z,100
2018-04-13T10:25:22.527Z,105
2018-04-13T10:26:08.140Z,110
2018-04-13T10:27:07.904Z,120
2018-04-13T10:28:37.765Z,125
2018-04-13T10:29:22.868Z,120
2018-04-13T10:30:22.892Z,110
2018-04-13T10:31:07.754Z,105
2018-04-13T10:32:08.553Z,100
2018-04-13T10:33:08.051Z,95
2018-04-13T10:34:08.351Z,90
2018-04-13T10:35:08.095Z,85
2018-04-13T10:36:08.119Z,80
2018-04-13T10:37:23.364Z,80
2018-04-13T10:39:08.448Z,85
2018-04-13T10:40:08.473Z,90
2018-04-13T10:41:08.502Z,95
2018-04-13T10:42:08.257Z,95
2018-04-13T10:43:08.802Z,95
2018-04-13T10:44:23.490Z,100
2018-04-13T10:45:08.326Z,105
2018-04-13T10:46:08.627Z,115
2018-04-13T10:47:08.899Z,115
2018-04-13T10:48:08.398Z,110
2018-04-13T10:49:23.867Z,105
2018-04-13T10:50:08.718Z,100
2018-04-13T10:51:09.009Z,90
2018-04-13T10:52:23.666Z,85
2018-04-13T10:53:08.513Z,85
2018-04-13T10:54:09.057Z,80
2018-04-13T10:55:09.091Z,70
2018-04-13T10:56:23.513Z,65
2018-04-13T10:57:08.945Z,60
2018-04-13T10:58:09.161Z,55
2018-04-13T10:59:08.925Z,55
2018-04-13T11:01:09.290Z,55
2018-04-13T11:02:08.736Z,55
2018-04-13T11:03:09.024Z,60
2018-04-13T11:04:09.051Z,60
2018-04-13T11:05:08.798Z,60
2018-04-13T11:06:08.825Z,60
2018-04-13T11:07:08.586Z,60
2018-04-13T11:08:09.398Z,70
2018-04-13T11:09:23.813Z,80
2018-04-13T11:10:08.924Z,85
2018-04-13T11:11:08.939Z,95
2018-04-13T11:13:08.724Z,130
2018-04-13T11:14:23.934Z,145
2018-04-13T11:15:38.867Z,160
2018-04-13T11:16:09.328Z,165
2018-04-13T11:17:09.077Z,175
2018-04-13T11:18:09.616Z,185
2018-04-13T11:19:09.385Z,190
2018-04-13T11:20:09.665Z,200
2018-04-13T11:21:09.435Z,195
2018-04-13T11:22:09.821Z,190
2018-04-13T11:23:09.480Z,190
2018-04-13T11:24:24.415Z,190
2018-04-13T11:25:24.185Z,190
2018-04-13T11:26:09.549Z,195
2018-04-13T11:27:09.837Z,190
2018-04-13T11:28:24.001Z,190
2018-04-13T11:29:09.101Z,185
2018-04-13T11:30:09.403Z,180
2018-04-13T11:31:09.412Z,175
2018-04-13T11:32:09.695Z,170
2018-04-13T11:33:09.719Z,165
2018-04-13T11:34:10.007Z,160
2018-04-13T11:35:09.771Z,155
2018-04-13T11:36:09.527Z,150
2018-04-13T11:37:09.292Z,145
2018-04-13T11:38:10.098Z,145
2018-04-13T11:40:10.144Z,160
2018-04-13T11:41:09.905Z,165
2018-04-13T11:42:10.189Z,180
2018-04-13T11:43:09.952Z,175
2018-04-13T11:44:24.892Z,175
2018-04-13T11:45:10.016Z,170
2018-04-13T11:46:09.246Z,170
2018-04-13T11:47:39.623Z,175
2018-04-13T11:48:10.329Z,180
2018-04-13T11:49:10.360Z,185
2018-04-13T11:50:10.409Z,185
2018-04-13T11:51:24.805Z,195
2018-04-13T11:52:10.429Z,195
2018-04-13T11:53:25.113Z,195
2018-04-13T11:54:10.480Z,205
2018-04-13T11:55:24.909Z,185
2018-04-13T11:57:10.287Z,160
2018-04-13T11:58:10.577Z,145
2018-04-13T11:59:10.596Z,135
2018-04-13T12:00:25.029Z,115
2018-04-13T12:01:10.649Z,115
2018-04-13T12:02:10.150Z,120
2018-04-13T12:03:40.012Z,135
2018-04-13T12:04:10.201Z,140
2018-04-13T12:05:10.227Z,145
2018-04-13T12:06:10.507Z,155
2018-04-13T12:07:24.935Z,165
2018-04-13T12:09:10.580Z,175
2018-04-13T12:10:10.345Z,185
2018-04-13T12:12:10.651Z,185
2018-04-13T12:13:10.688Z,190
2018-04-13T12:14:10.716Z,195
2018-04-13T12:15:10.992Z,190
2018-04-13T12:16:25.673Z,185
2018-04-13T12:18:10.540Z,180
2018-04-13T12:19:25.747Z,175
2018-04-13T12:20:10.856Z,165
2018-04-13T12:21:25.535Z,165
2018-04-13T12:22:10.905Z,165
2018-04-13T12:24:11.209Z,160
2018-04-13T12:25:10.716Z,160
2018-04-13T12:26:10.742Z,160
2018-04-13T12:27:11.024Z,165
2018-04-13T12:28:11.317Z,165
2018-04-13T12:29:25.738Z,160
2018-04-13T12:30:11.345Z,160
2018-04-13T12:31:25.929Z,155
2018-04-13T12:32:11.409Z,155
2018-04-13T12:33:11.171Z,150
2018-04-13T12:34:11.200Z,140
2018-04-13T12:35:25.879Z,135
2018-04-13T12:36:11.509Z,135
2018-04-13T12:37:11.007Z,135
2018-04-13T12:38:10.772Z,135
2018-04-13T12:39:11.317Z,140
2018-04-13T12:40:26.017Z,145
2018-04-13T12:41:11.639Z,140
2018-04-13T12:42:10.873Z,140
2018-04-13T12:43:26.082Z,145
2018-04-13T12:44:26.363Z,145
2018-04-13T12:45:11.467Z,145
2018-04-13T12:46:11.239Z,145
2018-04-13T12:47:11.511Z,150
2018-04-13T12:48:11.545Z,155
2018-04-13T12:49:11.669Z,160
2018-04-13T12:50:26.512Z,165
2018-04-13T12:51:11.619Z,170
2018-04-13T12:52:11.898Z,165
2018-04-13T12:53:11.767Z,165
2018-04-13T12:54:11.985Z,170
2018-04-13T12:55:27.214Z,185
2018-04-13T12:56:26.771Z,190
2018-04-13T12:57:11.808Z,195
2018-04-13T12:58:11.784Z,190
2018-04-13T12:59:12.073Z,195
2018-04-13T13:00:11.873Z,175
2018-04-13T13:01:11.601Z,200
2018-04-13T13:02:26.807Z,175
2018-04-13T13:03:11.904Z,200
2018-04-13T13:04:11.671Z,170
2018-04-13T13:05:11.981Z,165
2018-04-13T13:06:12.241Z,170
2018-04-13T13:07:12.004Z,170
2018-04-13T13:08:26.689Z,175
2018-04-13T13:09:12.417Z,170
2018-04-13T13:10:12.092Z,165
2018-04-13T13:11:12.369Z,160
2018-04-13T13:12:12.387Z,160
2018-04-13T13:13:12.410Z,160
2018-04-13T13:14:27.101Z,160
2018-04-13T13:15:12.215Z,160
2018-04-13T13:16:12.331Z,155
2018-04-13T13:17:12.262Z,155
2018-04-13T13:18:12.282Z,160
2018-04-13T13:19:26.962Z,160
2018-04-13T13:20:12.327Z,160
2018-04-13T13:21:12.360Z,175
2018-04-13T13:22:42.060Z,150
2018-04-13T13:23:12.672Z,145
2018-04-13T13:25:27.109Z,140
2018-04-13T13:26:27.150Z,140
2018-04-13T13:27:12.245Z,140
2018-04-13T13:28:12.527Z,135
2018-04-13T13:29:27.474Z,135
2018-04-13T13:30:12.844Z,140
2018-04-13T13:31:12.604Z,135
2018-04-13T13:32:12.894Z,140
2018-04-13T13:33:12.661Z,140
2018-04-13T13:34:12.692Z,140
2018-04-13T13:35:27.109Z,145
2018-04-13T13:36:27.392Z,155
2018-04-13T13:37:12.498Z,155
2018-04-13T13:38:27.690Z,165
2018-04-13T13:39:12.805Z,165
2018-04-13T13:40:27.486Z,165
2018-04-13T13:41:12.591Z,165
2018-04-13T13:43:13.157Z,165
2018-04-13T13:44:12.928Z,165
2018-04-13T13:45:12.725Z,160
2018-04-13T13:46:27.891Z,160
2018-04-13T13:47:27.920Z,155
2018-04-13T13:48:13.291Z,155
2018-04-13T13:49:27.710Z,155
2018-04-13T13:50:13.329Z,150
2018-04-13T13:51:13.366Z,155
2018-04-13T13:52:13.123Z,155
2018-04-13T13:54:42.755Z,160
2018-04-13T13:55:13.460Z,155
2018-04-13T13:56:13.225Z,160
2018-04-13T13:57:27.650Z,175
2018-04-13T13:58:13.539Z,175
2018-04-13T13:59:13.568Z,170
2018-04-13T14:00:28.243Z,175
2018-04-13T14:01:28.270Z,190
2018-04-13T14:02:27.773Z,190
2018-04-13T14:03:13.396Z,185
2018-04-13T14:04:13.343Z,175
2018-04-13T14:05:13.453Z,170
2018-04-13T14:06:13.477Z,165
2018-04-13T14:07:13.507Z,165
2018-04-13T14:08:13.793Z,160
2018-04-13T14:09:13.548Z,165
2018-04-13T14:10:43.150Z,170
2018-04-13T14:11:13.605Z,175
2018-04-13T14:12:13.631Z,165
2018-04-13T14:13:13.388Z,185
2018-04-13T14:14:13.418Z,190
2018-04-13T14:15:13.965Z,190
2018-04-13T14:16:28.391Z,185
2018-04-13T14:17:13.750Z,180
2018-04-13T14:18:28.435Z,175
2018-04-13T14:20:13.666Z,165
2018-04-13T14:21:14.111Z,160
2018-04-13T14:22:13.622Z,170
2018-04-13T14:23:28.821Z,150
2018-04-13T14:24:14.189Z,155
2018-04-13T14:25:43.531Z,170
2018-04-13T14:26:14.244Z,170
2018-04-13T14:27:14.004Z,165
2018-04-13T14:28:14.369Z,160
2018-04-13T14:29:14.053Z,150
2018-04-13T14:30:14.362Z,150
2018-04-13T14:31:14.367Z,150
2018-04-13T14:32:13.869Z,150
2018-04-13T14:33:14.419Z,155
2018-04-13T14:34:14.180Z,155
2018-04-13T14:35:14.478Z,150
2018-04-13T14:36:14.240Z,145
2018-04-13T14:37:14.256Z,145
2018-04-13T14:38:14.543Z,145
2018-04-13T14:39:14.570Z,145
2018-04-13T14:40:28.995Z,145
2018-04-13T14:41:14.617Z,145
2018-04-13T14:43:29.078Z,140
2018-04-13T14:44:14.710Z,140
2018-04-13T14:45:14.454Z,140
2018-04-13T14:46:14.744Z,135
2018-04-13T14:47:14.772Z,135
2018-04-13T14:48:29.461Z,130
2018-04-13T14:50:14.772Z,125
2018-04-13T14:51:29.271Z,125
2018-04-13T14:52:14.733Z,130
2018-04-13T14:53:14.919Z,125
2018-04-13T14:54:14.689Z,125
2018-04-13T14:55:14.716Z,125
2018-04-13T14:56:14.997Z,120
2018-04-13T14:57:29.418Z,120